createdAt,value
2022-08-01T00:00:05.644Z,9.747191
2022-08-01T00:01:05.635Z,9.747278
2022-08-01T00:02:05.955Z,9.747342
2022-08-01T00:03:05.615Z,9.747337
2022-08-01T00:04:05.636Z,9.747359
2022-08-01T00:05:05.610Z,9.747570
2022-08-01T00:06:05.596Z,9.747522
2022-08-01T00:07:05.589Z,9.747731
2022-08-01T00:08:05.589Z,9.747717
2022-08-01T00:09:05.601Z,9.747458
2022-08-01T00:10:05.567Z,9.747478
2022-08-01T00:11:05.556Z,9.747320
2022-08-01T00:12:05.543Z,9.747351
2022-08-01T00:13:05.541Z,9.747329
2022-08-01T00:14:05.565Z,9.747374
2022-08-01T00:15:05.525Z,9.747307
2022-08-01T00:16:05.520Z,9.747263
2022-08-01T00:17:07.621Z,9.747302
2022-08-01T00:18:06.516Z,9.747432
2022-08-01T00:19:05.497Z,9.747452
2022-08-01T00:20:05.512Z,9.747363
2022-08-01T00:21:05.484Z,9.747347
2022-08-01T00:22:05.867Z,9.747309
2022-08-01T00:23:05.467Z,9.747225
2022-08-01T00:24:05.461Z,9.747298
2022-08-01T00:25:05.478Z,9.747288
2022-08-01T00:26:05.452Z,9.747293
2022-08-01T00:27:05.431Z,9.747356
2022-08-01T00:28:05.425Z,9.747404
2022-08-01T00:29:05.427Z,9.747426
2022-08-01T00:30:13.415Z,9.747433
2022-08-01T00:31:06.397Z,9.747383
2022-08-01T00:32:05.707Z,9.747325
2022-08-01T00:33:05.402Z,9.747149
2022-08-01T00:34:05.393Z,9.747120
2022-08-01T00:35:05.404Z,9.747101
2022-08-01T00:36:05.366Z,9.747189
2022-08-01T00:37:05.351Z,9.747448
2022-08-01T00:38:05.333Z,9.747284
2022-08-01T00:39:05.329Z,9.747263
2022-08-01T00:40:05.378Z,9.747306
2022-08-01T00:41:05.317Z,9.747192
2022-08-01T00:42:05.674Z,9.747201
2022-08-01T00:43:05.304Z,9.747254
2022-08-01T00:44:05.301Z,9.747260
2022-08-01T00:45:05.309Z,9.747184
2022-08-01T00:46:05.278Z,9.747123
2022-08-01T00:47:05.279Z,9.747179
2022-08-01T00:48:05.260Z,9.747127
2022-08-01T00:49:05.310Z,9.747209
2022-08-01T00:50:06.272Z,9.747409
2022-08-01T00:51:05.240Z,9.747373
2022-08-01T00:52:05.555Z,9.747125
2022-08-01T00:53:05.221Z,9.747153
2022-08-01T00:54:05.217Z,9.747154
2022-08-01T00:55:05.232Z,9.747197
2022-08-01T00:56:05.200Z,9.747272
2022-08-01T00:57:05.201Z,9.747301
2022-08-01T00:58:06.670Z,9.747155
2022-08-01T00:59:05.175Z,9.747198
2022-08-01T01:00:05.200Z,9.747318
2022-08-01T01:01:05.239Z,9.747324
2022-08-01T01:02:06.016Z,9.747207
2022-08-01T01:03:06.144Z,9.747240
2022-08-01T01:04:08.590Z,9.747355
2022-08-01T01:05:05.155Z,9.747366
2022-08-01T01:06:05.121Z,9.747490
2022-08-01T01:07:05.117Z,9.747527
2022-08-01T01:08:05.110Z,9.747457
2022-08-01T01:09:05.110Z,9.747426
2022-08-01T01:10:05.122Z,9.747371
2022-08-01T01:11:05.097Z,9.747532
2022-08-01T01:12:05.377Z,9.747398
2022-08-01T01:13:05.074Z,9.747351
2022-08-01T01:14:05.063Z,9.747435
2022-08-01T01:15:05.075Z,9.747480
2022-08-01T01:16:05.052Z,9.747623
2022-08-01T01:17:05.044Z,9.747428
2022-08-01T01:18:05.033Z,9.747392
2022-08-01T01:19:05.028Z,9.747479
2022-08-01T01:20:05.043Z,9.747440
2022-08-01T01:21:05.006Z,9.747560
2022-08-01T01:22:05.185Z,9.747448
2022-08-01T01:23:04.994Z,9.747500
2022-08-01T01:24:04.983Z,9.747456
2022-08-01T01:25:05.003Z,9.747586
2022-08-01T01:26:04.980Z,9.747432
2022-08-01T01:27:04.969Z,9.747310
2022-08-01T01:28:04.958Z,9.747404
2022-08-01T01:29:04.951Z,9.747455
2022-08-01T01:30:04.990Z,9.747374
2022-08-01T01:31:04.943Z,9.747584
2022-08-01T01:32:05.136Z,9.747643
2022-08-01T01:33:04.931Z,9.747455
2022-08-01T01:34:04.909Z,9.747674
2022-08-01T01:35:04.930Z,9.747909
2022-08-01T01:36:11.537Z,9.747888
2022-08-01T01:37:05.886Z,9.747391
2022-08-01T01:38:04.880Z,9.747692
2022-08-01T01:39:04.869Z,9.747647
2022-08-01T01:40:04.920Z,9.747560
2022-08-01T01:41:04.854Z,9.747438
2022-08-01T01:42:05.170Z,9.747392
2022-08-01T01:43:04.854Z,9.747396
2022-08-01T01:44:04.835Z,9.747508
2022-08-01T01:45:04.870Z,9.747474
2022-08-01T01:46:04.826Z,9.747580
2022-08-01T01:47:04.824Z,9.747514
2022-08-01T01:48:04.816Z,9.747628
2022-08-01T01:49:04.893Z,9.747530
2022-08-01T01:50:04.836Z,9.747538
2022-08-01T01:51:04.784Z,9.747568
2022-08-01T01:52:04.914Z,9.747560
2022-08-01T01:53:05.757Z,9.747592
2022-08-01T01:54:05.759Z,9.747556
2022-08-01T01:55:04.750Z,9.747465
2022-08-01T01:56:04.768Z,9.747491
2022-08-01T01:57:05.741Z,9.747624
2022-08-01T01:58:04.729Z,9.747421
2022-08-01T01:59:04.727Z,9.747428
2022-08-01T02:00:04.717Z,9.747523
2022-08-01T02:01:04.730Z,9.747560
2022-08-01T02:02:06.761Z,9.747550
2022-08-01T02:03:04.743Z,9.747522
2022-08-01T02:04:04.709Z,9.747484
2022-08-01T02:05:04.678Z,9.747539
2022-08-01T02:06:04.710Z,9.747408
2022-08-01T02:07:04.662Z,9.747418
2022-08-01T02:08:04.650Z,9.747388
2022-08-01T02:09:04.653Z,9.747383
2022-08-01T02:10:04.643Z,9.747592
2022-08-01T02:11:04.660Z,9.747591
2022-08-01T02:12:07.777Z,9.747527
2022-08-01T02:13:04.627Z,9.747562
2022-08-01T02:14:04.662Z,9.747421
2022-08-01T02:15:04.601Z,9.747476
2022-08-01T02:16:04.626Z,9.747480
2022-08-01T02:17:04.590Z,9.747478
2022-08-01T02:18:04.586Z,9.747609
2022-08-01T02:19:04.563Z,9.747574
2022-08-01T02:20:05.572Z,9.747570
2022-08-01T02:21:04.578Z,9.747524
2022-08-01T02:22:04.810Z,9.747602
2022-08-01T02:23:04.541Z,9.747586
2022-08-01T02:24:06.145Z,9.747493
2022-08-01T02:25:05.528Z,9.747449
2022-08-01T02:26:10.430Z,9.747442
2022-08-01T02:27:05.506Z,9.747436
2022-08-01T02:28:04.501Z,9.747469
2022-08-01T02:29:04.499Z,9.747470
2022-08-01T02:30:04.485Z,9.747467
2022-08-01T02:31:04.502Z,9.747305
2022-08-01T02:32:04.812Z,9.747431
2022-08-01T02:33:04.464Z,9.747450
2022-08-01T02:34:04.448Z,9.747533
2022-08-01T02:35:04.459Z,9.747540
2022-08-01T02:36:32.031Z,9.747586
2022-08-01T02:37:05.429Z,9.747581
2022-08-01T02:38:04.424Z,9.747500
2022-08-01T02:39:04.425Z,9.747511
2022-08-01T02:40:04.403Z,9.747492
2022-08-01T02:41:04.434Z,9.747468
2022-08-01T02:42:04.663Z,9.747414
2022-08-01T02:43:04.386Z,9.747434
2022-08-01T02:44:04.433Z,9.747485
2022-08-01T02:45:04.370Z,9.747540
2022-08-01T02:46:04.389Z,9.747586
2022-08-01T02:47:04.347Z,9.747440
2022-08-01T02:48:04.340Z,9.747435
2022-08-01T02:49:04.384Z,9.747519
2022-08-01T02:50:04.339Z,9.747530
2022-08-01T02:51:04.985Z,9.747418
2022-08-01T02:52:04.695Z,9.747610
2022-08-01T02:53:04.332Z,9.747488
2022-08-01T02:54:04.293Z,9.747490
2022-08-01T02:55:04.290Z,9.747473
2022-08-01T02:56:04.305Z,9.747398
2022-08-01T02:57:04.270Z,9.747462
2022-08-01T02:58:04.304Z,9.747324
2022-08-01T02:59:04.250Z,9.747442
2022-08-01T03:00:04.249Z,9.747398
2022-08-01T03:01:04.306Z,9.747343
2022-08-01T03:02:04.672Z,9.747387
2022-08-01T03:03:04.228Z,9.747466
2022-08-01T03:04:04.215Z,9.747458
2022-08-01T03:05:04.208Z,9.747630
2022-08-01T03:06:04.228Z,9.747584
2022-08-01T03:07:04.197Z,9.747519
2022-08-01T03:08:04.193Z,9.747491
2022-08-01T03:09:05.177Z,9.747437
2022-08-01T03:10:04.174Z,9.747382
2022-08-01T03:11:04.193Z,9.747407
2022-08-01T03:12:04.528Z,9.747385
2022-08-01T03:13:04.148Z,9.747282
2022-08-01T03:14:04.138Z,9.747376
2022-08-01T03:15:04.129Z,9.747433
2022-08-01T03:16:04.154Z,9.747466
2022-08-01T03:17:04.122Z,9.747482
2022-08-01T03:18:04.108Z,9.747455
2022-08-01T03:19:04.103Z,9.747478
2022-08-01T03:20:04.091Z,9.747520
2022-08-01T03:21:04.125Z,9.747469
2022-08-01T03:22:04.422Z,9.747446
2022-08-01T03:23:04.066Z,9.747604
2022-08-01T03:24:04.065Z,9.747505
2022-08-01T03:25:04.051Z,9.747473
2022-08-01T03:26:04.046Z,9.747531
2022-08-01T03:27:04.058Z,9.747484
2022-08-01T03:28:04.036Z,9.747584
2022-08-01T03:29:04.029Z,9.747505
2022-08-01T03:30:04.014Z,9.747643
2022-08-01T03:31:04.011Z,9.747571
2022-08-01T03:32:04.413Z,9.747505
2022-08-01T03:33:03.996Z,9.747528
2022-08-01T03:34:05.923Z,9.747429
2022-08-01T03:35:04.988Z,9.747439
2022-08-01T03:36:03.973Z,9.747428
2022-08-01T03:37:03.998Z,9.747396
2022-08-01T03:38:18.451Z,9.747424
2022-08-01T03:39:05.955Z,9.747414
2022-08-01T03:40:03.945Z,9.747344
2022-08-01T03:41:03.938Z,9.747394
2022-08-01T03:42:03.949Z,9.747500
2022-08-01T03:43:03.919Z,9.747412
2022-08-01T03:44:03.906Z,9.747400
2022-08-01T03:45:03.902Z,9.747423
2022-08-01T03:46:03.895Z,9.747493
2022-08-01T03:47:03.909Z,9.747461
2022-08-01T03:48:03.877Z,9.747437
2022-08-01T03:49:03.940Z,9.747407
2022-08-01T03:50:03.861Z,9.747473
2022-08-01T03:51:03.853Z,9.747476
2022-08-01T03:52:04.131Z,9.747438
2022-08-01T03:53:03.850Z,9.747457
2022-08-01T03:54:03.823Z,9.747330
2022-08-01T03:55:03.819Z,9.747519
2022-08-01T03:56:03.812Z,9.747434
2022-08-01T03:57:03.830Z,9.747414
2022-08-01T03:58:08.238Z,9.747421
2022-08-01T03:59:05.790Z,9.747330
2022-08-01T04:00:03.792Z,9.747385
2022-08-01T04:01:03.834Z,9.747374
2022-08-01T04:02:04.112Z,9.747426
2022-08-01T04:03:03.757Z,9.747383
2022-08-01T04:04:03.748Z,9.747362
2022-08-01T04:05:03.738Z,9.747426
2022-08-01T04:06:03.733Z,9.747392
2022-08-01T04:07:03.749Z,9.747437
2022-08-01T04:08:03.727Z,9.747403
2022-08-01T04:09:03.711Z,9.747422
2022-08-01T04:10:03.705Z,9.747476
2022-08-01T04:11:03.691Z,9.747456
2022-08-01T04:12:11.966Z,9.747424
2022-08-01T04:13:04.679Z,9.747423
2022-08-01T04:14:03.679Z,9.747352
2022-08-01T04:15:04.668Z,9.747253
2022-08-01T04:16:03.660Z,9.747251
2022-08-01T04:17:03.681Z,9.747268
2022-08-01T04:18:03.639Z,9.747289
2022-08-01T04:19:03.644Z,9.747349
2022-08-01T04:20:03.626Z,9.747370
2022-08-01T04:21:03.618Z,9.747411
2022-08-01T04:22:03.940Z,9.747380
2022-08-01T04:23:03.604Z,9.747402
2022-08-01T04:24:03.595Z,9.747470
2022-08-01T04:25:03.589Z,9.747390
2022-08-01T04:26:03.575Z,9.747273
2022-08-01T04:27:03.605Z,9.747236
2022-08-01T04:28:03.563Z,9.747330
2022-08-01T04:29:03.560Z,9.747227
2022-08-01T04:30:03.548Z,9.747419
2022-08-01T04:31:03.535Z,9.747320
2022-08-01T04:32:03.986Z,9.747343
2022-08-01T04:33:03.550Z,9.747440
2022-08-01T04:34:03.531Z,9.747499
2022-08-01T04:35:03.516Z,9.747474
2022-08-01T04:36:05.123Z,9.747370
2022-08-01T04:37:04.531Z,9.747384
2022-08-01T04:38:03.489Z,9.747416
2022-08-01T04:39:03.478Z,9.747388
2022-08-01T04:40:03.477Z,9.747470
2022-08-01T04:41:08.899Z,9.747459
2022-08-01T04:42:04.783Z,9.747335
2022-08-01T04:43:03.486Z,9.747394
2022-08-01T04:44:03.442Z,9.747385
2022-08-01T04:45:03.443Z,9.747339
2022-08-01T04:46:03.469Z,9.747318
2022-08-01T04:47:03.451Z,9.747253
2022-08-01T04:48:03.443Z,9.747478
2022-08-01T04:49:03.447Z,9.747480
2022-08-01T04:50:03.425Z,9.747463
2022-08-01T04:51:03.429Z,9.747333
2022-08-01T04:52:03.707Z,9.747361
2022-08-01T04:53:03.399Z,9.747260
2022-08-01T04:54:03.357Z,9.747274
2022-08-01T04:55:03.373Z,9.747339
2022-08-01T04:56:03.348Z,9.747367
2022-08-01T04:57:03.339Z,9.747310
2022-08-01T04:58:03.359Z,9.747344
2022-08-01T04:59:03.323Z,9.747400
2022-08-01T05:00:03.318Z,9.747380
2022-08-01T05:01:03.338Z,9.747377
2022-08-01T05:02:03.434Z,9.747309
2022-08-01T05:03:03.314Z,9.747398
2022-08-01T05:04:03.284Z,9.747381
2022-08-01T05:05:03.272Z,9.747329
2022-08-01T05:06:04.271Z,9.747362
2022-08-01T05:07:03.265Z,9.747412
2022-08-01T05:08:03.282Z,9.747452
2022-08-01T05:09:03.245Z,9.747297
2022-08-01T05:10:03.249Z,9.747334
2022-08-01T05:11:03.228Z,9.747236
2022-08-01T05:12:03.320Z,9.747530
2022-08-01T05:13:03.247Z,9.747357
2022-08-01T05:14:03.221Z,9.747342
2022-08-01T05:15:03.202Z,9.747471
2022-08-01T05:16:03.198Z,9.747388
2022-08-01T05:17:03.189Z,9.747557
2022-08-01T05:18:03.214Z,9.747474
2022-08-01T05:19:03.184Z,9.747239
2022-08-01T05:20:03.166Z,9.747365
2022-08-01T05:21:03.158Z,9.747407
2022-08-01T05:22:03.276Z,9.747428
2022-08-01T05:23:03.168Z,9.747371
2022-08-01T05:24:03.148Z,9.747270
2022-08-01T05:25:03.125Z,9.747336
2022-08-01T05:26:03.126Z,9.747415
2022-08-01T05:27:03.475Z,9.747395
2022-08-01T05:28:03.125Z,9.747346
2022-08-01T05:29:03.096Z,9.747373
2022-08-01T05:30:03.083Z,9.747418
2022-08-01T05:31:03.075Z,9.747435
2022-08-01T05:32:03.369Z,9.747271
2022-08-01T05:33:03.770Z,9.747447
2022-08-01T05:34:03.058Z,9.747558
2022-08-01T05:35:03.048Z,9.747457
2022-08-01T05:36:03.033Z,9.747514
2022-08-01T05:37:03.277Z,9.747522
2022-08-01T05:38:03.054Z,9.747365
2022-08-01T05:39:03.030Z,9.747289
2022-08-01T05:40:03.023Z,9.747380
2022-08-01T05:41:02.999Z,9.747425
2022-08-01T05:42:03.363Z,9.747404
2022-08-01T05:43:03.025Z,9.747621
2022-08-01T05:44:02.986Z,9.747553
2022-08-01T05:45:02.961Z,9.747270
2022-08-01T05:46:02.965Z,9.747310
2022-08-01T05:47:02.950Z,9.747416
2022-08-01T05:48:02.974Z,9.747428
2022-08-01T05:49:03.015Z,9.747467
2022-08-01T05:50:02.937Z,9.747345
2022-08-01T05:51:02.919Z,9.747228
2022-08-01T05:52:03.633Z,9.747290
2022-08-01T05:53:02.934Z,9.747396
2022-08-01T05:54:02.895Z,9.747485
2022-08-01T05:55:02.888Z,9.747419
2022-08-01T05:56:02.895Z,9.747308
2022-08-01T05:57:02.914Z,9.747275
2022-08-01T05:58:02.904Z,9.747353
2022-08-01T05:59:02.861Z,9.747219
2022-08-01T06:00:03.862Z,9.747198
2022-08-01T06:01:02.855Z,9.747175
2022-08-01T06:02:02.954Z,9.747160
2022-08-01T06:03:02.855Z,9.747201
2022-08-01T06:04:02.817Z,9.747241
2022-08-01T06:05:02.812Z,9.747278
2022-08-01T06:06:02.802Z,9.747098
2022-08-01T06:07:02.803Z,9.747143
2022-08-01T06:08:02.820Z,9.747024
2022-08-01T06:09:02.780Z,9.746974
2022-08-01T06:10:02.783Z,9.747075
2022-08-01T06:11:02.762Z,9.747196
2022-08-01T06:12:03.059Z,9.747184
2022-08-01T06:13:02.796Z,9.747199
2022-08-01T06:14:02.743Z,9.747001
2022-08-01T06:15:02.731Z,9.747165
2022-08-01T06:16:02.730Z,9.747117
2022-08-01T06:17:02.720Z,9.747187
2022-08-01T06:18:02.740Z,9.747152
2022-08-01T06:19:02.705Z,9.746997
2022-08-01T06:20:02.694Z,9.747044
2022-08-01T06:21:02.693Z,9.747057
2022-08-01T06:22:02.916Z,9.747176
2022-08-01T06:23:02.711Z,9.747196
2022-08-01T06:24:03.687Z,9.747234
2022-08-01T06:25:02.661Z,9.747117
2022-08-01T06:26:02.662Z,9.747210
2022-08-01T06:27:02.870Z,9.747220
2022-08-01T06:28:03.631Z,9.747230
2022-08-01T06:29:02.651Z,9.747216
2022-08-01T06:30:02.634Z,9.747379
2022-08-01T06:31:02.604Z,9.747403
2022-08-01T06:32:02.742Z,9.747365
2022-08-01T06:33:02.597Z,9.747357
2022-08-01T06:34:02.741Z,9.747334
2022-08-01T06:35:02.668Z,9.747243
2022-08-01T06:36:02.568Z,9.747291
2022-08-01T06:37:05.889Z,9.747320
2022-08-01T06:38:02.548Z,9.747282
2022-08-01T06:39:02.576Z,9.747272
2022-08-01T06:40:02.544Z,9.747316
2022-08-01T06:41:02.529Z,9.747272
2022-08-01T06:42:02.679Z,9.747350
2022-08-01T06:43:02.511Z,9.747370
2022-08-01T06:44:02.536Z,9.747332
2022-08-01T06:45:02.505Z,9.747342
2022-08-01T06:46:02.493Z,9.747289
2022-08-01T06:47:03.480Z,9.747285
2022-08-01T06:48:02.469Z,9.747388
2022-08-01T06:49:02.543Z,9.747414
2022-08-01T06:50:02.461Z,9.747415
2022-08-01T06:51:02.456Z,9.747393
2022-08-01T06:52:02.527Z,9.747313
2022-08-01T06:53:02.434Z,9.747271
2022-08-01T06:54:02.457Z,9.747324
2022-08-01T06:55:02.422Z,9.747377
2022-08-01T06:56:02.414Z,9.747345
2022-08-01T06:57:02.409Z,9.747387
2022-08-01T06:58:02.397Z,9.747335
2022-08-01T06:59:02.422Z,9.747360
2022-08-01T07:00:02.369Z,9.747348
2022-08-01T07:01:03.474Z,9.747355
2022-08-01T07:02:02.443Z,9.747313
2022-08-01T07:03:02.357Z,9.747401
2022-08-01T07:04:02.381Z,9.747335
2022-08-01T07:05:02.362Z,9.747374
2022-08-01T07:06:02.337Z,9.747358
2022-08-01T07:07:02.329Z,9.747289
2022-08-01T07:08:02.322Z,9.747315
2022-08-01T07:09:07.407Z,9.747286
2022-08-01T07:10:04.367Z,9.747313
2022-08-01T07:11:02.293Z,9.747314
2022-08-01T07:12:02.448Z,9.747416
2022-08-01T07:13:02.277Z,9.747428
2022-08-01T07:14:02.306Z,9.747375
2022-08-01T07:15:02.266Z,9.747272
2022-08-01T07:16:02.264Z,9.747385
2022-08-01T07:17:02.249Z,9.747309
2022-08-01T07:18:02.240Z,9.747382
2022-08-01T07:19:02.261Z,9.747281
2022-08-01T07:20:02.229Z,9.747202
2022-08-01T07:21:02.245Z,9.747306
2022-08-01T07:22:02.213Z,9.747228
2022-08-01T07:23:36.566Z,9.747301
2022-08-01T07:24:02.226Z,9.747366
2022-08-01T07:25:03.195Z,9.747395
2022-08-01T07:26:02.180Z,9.747321
2022-08-01T07:27:21.248Z,9.747389
2022-08-01T07:28:03.186Z,9.747419
2022-08-01T07:29:02.195Z,9.747410
2022-08-01T07:30:02.153Z,9.747307
2022-08-01T07:31:02.142Z,9.747293
2022-08-01T07:32:02.193Z,9.747389
2022-08-01T07:33:02.175Z,9.747363
2022-08-01T07:34:02.117Z,9.747384
2022-08-01T07:35:02.151Z,9.747375
2022-08-01T07:36:02.099Z,9.747371
2022-08-01T07:37:02.090Z,9.747390
2022-08-01T07:38:02.080Z,9.747362
2022-08-01T07:39:03.802Z,9.747410
2022-08-01T07:40:02.361Z,9.747462
2022-08-01T07:41:02.056Z,9.747360
2022-08-01T07:42:07.106Z,9.747376
2022-08-01T07:43:03.040Z,9.747428
2022-08-01T07:44:04.811Z,9.747427
2022-08-01T07:45:03.054Z,9.747396
2022-08-01T07:46:02.017Z,9.747428
2022-08-01T07:47:02.012Z,9.747451
2022-08-01T07:48:02.013Z,9.747456
2022-08-01T07:49:02.034Z,9.747485
2022-08-01T07:50:02.047Z,9.747431
2022-08-01T07:51:02.048Z,9.747405
2022-08-01T07:52:03.275Z,9.747415
2022-08-01T07:53:01.968Z,9.747393
2022-08-01T07:54:01.961Z,9.747423
2022-08-01T07:55:01.977Z,9.747418
2022-08-01T07:56:01.944Z,9.747410
2022-08-01T07:57:01.936Z,9.747396
2022-08-01T07:58:01.932Z,9.747382
2022-08-01T07:59:01.924Z,9.747397
2022-08-01T08:00:01.942Z,9.747409
2022-08-01T08:01:01.907Z,9.747478
2022-08-01T08:02:02.107Z,9.747412
2022-08-01T08:03:01.892Z,9.747414
2022-08-01T08:04:02.206Z,9.747486
2022-08-01T08:05:02.091Z,9.747553
2022-08-01T08:06:01.886Z,9.747460
2022-08-01T08:07:01.864Z,9.747397
2022-08-01T08:08:01.858Z,9.747442
2022-08-01T08:09:01.850Z,9.747403
2022-08-01T08:10:01.871Z,9.747445
2022-08-01T08:11:01.845Z,9.747352
2022-08-01T08:12:01.825Z,9.747409
2022-08-01T08:13:02.004Z,9.747379
2022-08-01T08:14:01.981Z,9.747317
2022-08-01T08:15:01.931Z,9.747352
2022-08-01T08:16:01.804Z,9.747448
2022-08-01T08:17:02.184Z,9.747433
2022-08-01T08:18:01.795Z,9.747429
2022-08-01T08:19:01.864Z,9.747338
2022-08-01T08:20:01.792Z,9.747300
2022-08-01T08:21:06.307Z,9.747353
2022-08-01T08:22:04.034Z,9.747359
2022-08-01T08:23:01.754Z,9.747375
2022-08-01T08:24:01.732Z,9.747295
2022-08-01T08:25:01.792Z,9.747315
2022-08-01T08:26:02.905Z,9.747311
2022-08-01T08:27:01.721Z,9.747395
2022-08-01T08:28:01.718Z,9.747377
2022-08-01T08:29:01.724Z,9.747422
2022-08-01T08:30:01.711Z,9.747422
2022-08-01T08:31:01.725Z,9.747383
2022-08-01T08:32:01.681Z,9.747301
2022-08-01T08:33:01.677Z,9.747316
2022-08-01T08:34:01.656Z,9.747334
2022-08-01T08:35:01.937Z,9.747372
2022-08-01T08:36:01.644Z,9.747357
2022-08-01T08:37:01.640Z,9.747291
2022-08-01T08:38:01.628Z,9.747390
2022-08-01T08:39:01.725Z,9.747441
2022-08-01T08:40:01.645Z,9.747371
2022-08-01T08:41:01.611Z,9.747379
2022-08-01T08:42:01.613Z,9.747237
2022-08-01T08:43:01.589Z,9.747375
2022-08-01T08:44:01.592Z,9.747342
2022-08-01T08:45:01.613Z,9.747221
2022-08-01T08:46:01.573Z,9.747378
2022-08-01T08:47:01.573Z,9.747329
2022-08-01T08:48:01.556Z,9.747418
2022-08-01T08:49:01.760Z,9.747417
2022-08-01T08:50:01.564Z,9.747239
2022-08-01T08:51:01.520Z,9.747339
2022-08-01T08:52:01.525Z,9.747302
2022-08-01T08:53:01.508Z,9.747390
2022-08-01T08:54:01.516Z,9.747377
2022-08-01T08:55:01.535Z,9.747376
2022-08-01T08:56:02.497Z,9.747341
2022-08-01T08:57:01.490Z,9.747349
2022-08-01T08:58:02.253Z,9.747305
2022-08-01T08:59:01.480Z,9.747437
2022-08-01T09:00:01.490Z,9.747324
2022-08-01T09:01:01.474Z,9.747287
2022-08-01T09:02:01.471Z,9.747334
2022-08-01T09:03:01.483Z,9.747318
2022-08-01T09:04:01.455Z,9.747342
2022-08-01T09:05:01.486Z,9.747303
2022-08-01T09:06:01.412Z,9.747268
2022-08-01T09:07:01.416Z,9.747305
2022-08-01T09:08:01.407Z,9.747332
2022-08-01T09:09:01.388Z,9.747372
2022-08-01T09:10:01.418Z,9.747399
2022-08-01T09:11:01.393Z,9.747375
2022-08-01T09:12:01.366Z,9.747390
2022-08-01T09:13:01.368Z,9.747274
2022-08-01T09:14:01.356Z,9.747412
2022-08-01T09:15:01.374Z,9.747368
2022-08-01T09:16:01.341Z,9.747342
2022-08-01T09:17:01.348Z,9.747335
2022-08-01T09:18:01.329Z,9.747318
2022-08-01T09:19:01.387Z,9.747339
2022-08-01T09:20:01.308Z,9.747346
2022-08-01T09:21:01.329Z,9.747401
2022-08-01T09:22:01.295Z,9.747329
2022-08-01T09:23:01.290Z,9.747311
2022-08-01T09:24:01.283Z,9.747457
2022-08-01T09:25:01.298Z,9.747376
2022-08-01T09:26:01.297Z,9.747408
2022-08-01T09:27:03.393Z,9.747398
2022-08-01T09:28:01.252Z,9.747359
2022-08-01T09:29:01.282Z,9.747312
2022-08-01T09:30:02.283Z,9.747382
2022-08-01T09:31:01.263Z,9.747411
2022-08-01T09:32:01.249Z,9.747381
2022-08-01T09:33:01.217Z,9.747558
2022-08-01T09:34:01.208Z,9.747493
2022-08-01T09:35:01.333Z,9.747521
2022-08-01T09:36:01.620Z,9.747502
2022-08-01T09:37:01.191Z,9.747383
2022-08-01T09:44:54.851Z,9.747440
2022-08-01T09:45:49.054Z,9.747574
2022-08-01T09:46:46.111Z,9.747602
2022-08-01T09:47:45.137Z,9.747608
2022-08-01T09:48:45.103Z,9.747676
2022-08-01T09:49:50.076Z,9.747355
2022-08-01T09:50:46.108Z,9.747402
2022-08-01T09:51:58.794Z,9.747447
2022-08-01T09:52:46.066Z,9.747413
2022-08-01T09:53:51.317Z,9.747426
2022-08-01T09:54:46.062Z,9.747448
2022-08-01T09:55:45.096Z,9.747537
2022-08-01T09:56:45.039Z,9.747416
2022-08-01T09:57:45.034Z,9.747402
2022-08-01T09:58:45.030Z,9.747425
2022-08-01T09:59:58.325Z,9.747490
2022-08-01T10:00:47.103Z,9.747359
2022-08-01T10:01:45.005Z,9.747368
2022-08-01T10:02:45.020Z,9.747426
2022-08-01T10:03:45.058Z,9.747399
2022-08-01T10:04:44.972Z,9.747382
2022-08-01T10:05:50.065Z,9.747365
2022-08-01T10:06:44.998Z,9.747309
2022-08-01T10:07:44.989Z,9.747363
2022-08-01T10:08:44.973Z,9.747541
2022-08-01T10:09:44.942Z,9.747650
2022-08-01T10:10:46.384Z,9.747791
2022-08-01T10:11:45.310Z,9.747928
2022-08-01T10:12:45.639Z,9.747956
2022-08-01T10:13:44.908Z,9.747575
2022-08-01T10:14:46.364Z,9.747254
2022-08-01T10:15:44.900Z,9.747232
2022-08-01T10:16:44.921Z,9.747464
2022-08-01T10:17:51.226Z,9.747436
2022-08-01T10:18:45.876Z,9.747355
2022-08-01T10:19:44.871Z,9.747621
2022-08-01T10:20:44.861Z,9.747439
2022-08-01T10:21:56.812Z,9.747644
2022-08-01T10:22:45.849Z,9.747359
2022-08-01T10:23:44.835Z,9.747386
2022-08-01T10:24:44.837Z,9.747381
2022-08-01T10:25:46.963Z,9.747459
2022-08-01T10:26:44.851Z,9.747424
2022-08-01T10:27:44.811Z,9.747421
2022-08-01T10:28:44.807Z,9.747317
2022-08-01T10:29:46.674Z,9.747346
2022-08-01T10:30:45.843Z,9.747457
2022-08-01T10:31:44.821Z,9.747348
2022-08-01T10:32:50.653Z,9.747424
2022-08-01T10:33:51.750Z,9.747391
2022-08-01T10:34:45.756Z,9.747313
2022-08-01T10:35:47.889Z,9.747392
2022-08-01T10:36:45.777Z,9.747514
2022-08-01T10:37:52.672Z,9.747366
2022-08-01T10:38:45.738Z,9.747550
2022-08-01T10:39:44.824Z,9.747414
2022-08-01T10:40:44.720Z,9.747450
2022-08-01T10:41:44.730Z,9.747430
2022-08-01T10:42:44.699Z,9.747424
2022-08-01T10:43:46.842Z,9.747344
2022-08-01T10:44:44.701Z,9.747420
2022-08-01T10:45:44.677Z,9.747367
2022-08-01T10:46:45.797Z,9.747363
2022-08-01T10:47:50.705Z,9.747343
2022-08-01T10:48:45.647Z,9.747534
2022-08-01T10:49:45.674Z,9.747495
2022-08-01T10:50:44.642Z,9.747470
2022-08-01T10:51:52.759Z,9.747345
2022-08-01T10:52:45.620Z,9.747453
2022-08-01T10:53:44.619Z,9.747653
2022-08-01T10:54:52.570Z,9.747478
2022-08-01T10:55:45.600Z,9.747478
2022-08-01T10:56:44.632Z,9.747636
2022-08-01T10:57:44.594Z,9.747579
2022-08-01T10:58:45.583Z,9.747508
2022-08-01T10:59:49.811Z,9.747227
2022-08-01T11:00:45.572Z,9.747491
2022-08-01T11:01:44.884Z,9.747528
2022-08-01T11:02:45.623Z,9.747540
2022-08-01T11:04:01.056Z,9.747503
2022-08-01T11:04:46.551Z,9.747468
2022-08-01T11:05:44.544Z,9.747612
2022-08-01T11:06:45.816Z,9.747448
2022-08-01T11:07:44.526Z,9.747437
2022-08-01T11:08:44.584Z,9.747341
2022-08-01T11:09:49.521Z,9.747421
2022-08-01T11:10:46.501Z,9.747466
2022-08-01T11:11:44.513Z,9.747501
2022-08-01T11:12:44.493Z,9.747480
2022-08-01T11:13:44.469Z,9.747398
2022-08-01T11:14:55.657Z,9.747335
2022-08-01T11:15:50.370Z,9.747375
2022-08-01T11:16:44.490Z,9.747402
2022-08-01T11:17:44.444Z,9.747431
2022-08-01T11:18:44.493Z,9.747416
2022-08-01T11:19:44.432Z,9.747382
2022-08-01T11:20:45.437Z,9.747441
2022-08-01T11:21:59.125Z,9.747419
2022-08-01T11:22:45.415Z,9.747396
2022-08-01T11:23:44.408Z,9.747376
2022-08-01T11:24:44.394Z,9.747371
2022-08-01T11:26:03.493Z,9.747337
2022-08-01T11:26:45.408Z,9.747409
2022-08-01T11:27:44.383Z,9.747454
2022-08-01T11:29:10.869Z,9.747474
2022-08-01T11:29:46.363Z,9.747408
2022-08-01T11:30:44.368Z,9.747437
2022-08-01T11:31:44.357Z,9.747411
2022-08-01T11:33:06.621Z,9.747409
2022-08-01T11:33:47.036Z,9.747298
2022-08-01T11:34:44.328Z,9.747343
2022-08-01T11:35:44.318Z,9.747379
2022-08-01T11:37:00.059Z,9.747354
2022-08-01T11:37:46.339Z,9.747340
2022-08-01T11:38:44.548Z,9.747290
2022-08-01T11:39:44.283Z,9.747363
2022-08-01T11:40:44.272Z,9.747372
2022-08-01T11:41:45.134Z,9.747281
2022-08-01T11:42:44.287Z,9.747369
2022-08-01T11:43:44.276Z,9.747381
2022-08-01T11:44:44.256Z,9.747418
2022-08-01T11:45:44.237Z,9.747305
2022-08-01T11:46:44.236Z,9.747398
2022-08-01T11:47:44.247Z,9.747437
2022-08-01T11:48:44.218Z,9.747424
2022-08-01T11:49:44.221Z,9.747401
2022-08-01T11:50:44.203Z,9.747436